createdAt,value
2023-05-19T00:00:50.970Z,12.53
2023-05-19T00:01:50.103Z,12.83
2023-05-19T00:02:50.162Z,12.70
2023-05-19T00:03:50.130Z,12.46
2023-05-19T00:04:50.142Z,12.33
2023-05-19T00:05:50.172Z,12.25
2023-05-19T00:06:50.210Z,12.48
2023-05-19T00:07:50.252Z,12.56
2023-05-19T00:08:50.267Z,12.60
2023-05-19T00:09:50.327Z,12.82
2023-05-19T00:10:50.287Z,12.73
2023-05-19T00:11:50.305Z,12.31
2023-05-19T00:12:57.968Z,12.39
2023-05-19T00:13:50.326Z,12.49
2023-05-19T00:14:50.314Z,12.52
2023-05-19T00:15:50.345Z,12.69
2023-05-19T00:16:50.314Z,12.72
2023-05-19T00:17:50.343Z,12.32
2023-05-19T00:18:50.318Z,12.45
2023-05-19T00:19:50.262Z,12.50
2023-05-19T00:20:50.311Z,12.49
2023-05-19T00:21:50.313Z,12.33
2023-05-19T00:22:50.274Z,12.36
2023-05-19T00:23:50.282Z,12.21
2023-05-19T00:24:50.267Z,12.28
2023-05-19T00:25:50.279Z,12.37
2023-05-19T00:26:50.275Z,12.52
2023-05-19T00:27:50.254Z,12.22
2023-05-19T00:28:50.293Z,12.28
2023-05-19T00:29:50.225Z,12.55
2023-05-19T00:30:50.288Z,12.37
2023-05-19T00:31:50.284Z,12.53
2023-05-19T00:32:50.219Z,12.42
2023-05-19T00:33:50.174Z,12.70
2023-05-19T00:34:50.173Z,12.45
2023-05-19T00:35:50.184Z,12.55
2023-05-19T00:36:50.183Z,12.62
2023-05-19T00:37:50.159Z,12.46
2023-05-19T00:38:50.155Z,12.62
2023-05-19T00:39:50.196Z,12.66
2023-05-19T00:40:50.224Z,12.67
2023-05-19T00:41:50.303Z,12.75
2023-05-19T00:42:50.298Z,12.82
2023-05-19T00:43:50.293Z,12.99
2023-05-19T00:44:50.383Z,12.82
2023-05-19T00:45:50.348Z,12.90
2023-05-19T00:46:50.473Z,12.78
2023-05-19T00:47:50.449Z,12.80
2023-05-19T00:48:50.445Z,12.92
2023-05-19T00:49:50.510Z,12.86
2023-05-19T00:50:50.480Z,12.93
2023-05-19T00:51:50.548Z,13.03
2023-05-19T00:52:50.556Z,12.80
2023-05-19T00:53:50.558Z,12.94
2023-05-19T00:54:50.577Z,12.73
2023-05-19T00:55:50.597Z,12.92
2023-05-19T00:56:50.610Z,12.76
2023-05-19T00:57:50.702Z,12.82
2023-05-19T00:58:50.715Z,12.73
2023-05-19T00:59:50.738Z,12.75
2023-05-19T01:00:50.818Z,12.57
2023-05-19T01:01:50.774Z,12.36
2023-05-19T01:02:50.845Z,12.43
2023-05-19T01:03:50.862Z,12.57
2023-05-19T01:04:50.837Z,12.66
2023-05-19T01:05:50.893Z,12.53
2023-05-19T01:06:50.918Z,12.67
2023-05-19T01:07:50.935Z,12.48
2023-05-19T01:08:50.953Z,12.26
2023-05-19T01:09:50.955Z,12.45
2023-05-19T01:10:50.983Z,12.39
2023-05-19T01:11:51.074Z,12.53
2023-05-19T01:12:51.058Z,12.49
2023-05-19T01:13:51.115Z,12.64
2023-05-19T01:14:51.117Z,12.78
2023-05-19T01:15:51.171Z,12.66
2023-05-19T01:16:51.161Z,12.70
2023-05-19T01:17:51.263Z,12.53
2023-05-19T01:18:51.290Z,12.64
2023-05-19T01:19:51.263Z,12.70
2023-05-19T01:20:51.326Z,12.79
2023-05-19T01:21:51.338Z,12.83
2023-05-19T01:22:51.312Z,12.70
2023-05-19T01:23:51.377Z,12.57
2023-05-19T01:24:51.386Z,12.48
2023-05-19T01:25:51.411Z,12.15
2023-05-19T01:26:51.511Z,12.12
2023-05-19T01:27:51.506Z,12.15
2023-05-19T01:28:51.559Z,12.36
2023-05-19T01:29:51.564Z,12.40
2023-05-19T01:30:51.643Z,12.22
2023-05-19T01:31:51.675Z,12.46
2023-05-19T01:32:51.737Z,12.55
2023-05-19T01:33:51.708Z,12.50
2023-05-19T01:34:51.719Z,12.39
2023-05-19T01:35:51.772Z,12.26
2023-05-19T01:36:51.830Z,11.99
2023-05-19T01:37:51.782Z,11.99
2023-05-19T01:38:51.792Z,11.64
2023-05-19T01:39:51.813Z,11.92
2023-05-19T01:40:51.858Z,11.99
2023-05-19T01:41:51.907Z,11.88
2023-05-19T01:42:51.953Z,11.72
2023-05-19T01:43:51.984Z,11.52
2023-05-19T01:44:51.983Z,11.41
2023-05-19T01:45:52.040Z,11.59
2023-05-19T01:46:52.000Z,11.42
2023-05-19T01:47:52.069Z,11.51
2023-05-19T01:48:52.061Z,11.42
2023-05-19T01:49:52.062Z,11.54
2023-05-19T01:50:52.099Z,11.50
2023-05-19T01:51:52.138Z,11.57
2023-05-19T01:52:52.137Z,11.52
2023-05-19T01:53:52.202Z,11.74
2023-05-19T01:54:52.202Z,11.74
2023-05-19T01:55:52.251Z,11.92
2023-05-19T01:56:52.311Z,11.75
2023-05-19T01:57:52.296Z,11.95
2023-05-19T01:58:52.333Z,12.11
2023-05-19T01:59:52.358Z,12.21
2023-05-19T02:00:52.435Z,12.25
2023-05-19T02:01:52.470Z,12.26
2023-05-19T02:03:18.269Z,12.35
2023-05-19T02:04:18.362Z,12.46
2023-05-19T02:05:18.294Z,12.25
2023-05-19T02:06:18.355Z,12.37
2023-05-19T02:07:18.354Z,12.43
2023-05-19T02:08:18.350Z,11.81
2023-05-19T02:09:18.426Z,11.93
2023-05-19T02:10:18.421Z,12.12
2023-05-19T02:11:18.423Z,12.21
2023-05-19T02:12:18.480Z,11.71
2023-05-19T02:13:18.504Z,11.62
2023-05-19T02:14:18.495Z,11.76
2023-05-19T02:15:18.577Z,11.61
2023-05-19T02:16:18.692Z,11.71
2023-05-19T02:17:18.612Z,11.62
2023-05-19T02:18:18.632Z,11.78
2023-05-19T02:19:18.719Z,11.69
2023-05-19T02:20:18.688Z,11.81
2023-05-19T02:21:18.741Z,11.79
2023-05-19T02:22:18.749Z,11.99
2023-05-19T02:23:18.788Z,12.06
2023-05-19T02:24:18.771Z,11.89
2023-05-19T02:25:18.854Z,11.96
2023-05-19T02:26:18.844Z,11.48
2023-05-19T02:27:18.882Z,11.62
2023-05-19T02:28:18.947Z,11.51
2023-05-19T02:29:19.011Z,11.45
2023-05-19T02:30:19.007Z,11.57
2023-05-19T02:31:19.127Z,11.45
2023-05-19T02:32:19.131Z,11.34
2023-05-19T02:33:19.049Z,11.46
2023-05-19T02:34:19.103Z,11.35
2023-05-19T02:35:19.134Z,11.58
2023-05-19T02:36:19.159Z,11.79
2023-05-19T02:37:19.188Z,11.92
2023-05-19T02:38:19.155Z,12.02
2023-05-19T02:39:19.284Z,11.90
2023-05-19T02:40:19.243Z,12.08
2023-05-19T02:41:19.247Z,12.19
2023-05-19T02:42:19.245Z,12.28
2023-05-19T02:43:19.266Z,12.26
2023-05-19T02:44:19.264Z,12.32
2023-05-19T02:45:19.284Z,12.29
2023-05-19T02:46:19.358Z,12.18
2023-05-19T02:47:19.320Z,12.31
2023-05-19T02:48:19.365Z,12.25
2023-05-19T02:49:19.397Z,12.32
2023-05-19T02:50:19.395Z,12.37
2023-05-19T02:51:19.412Z,12.25
2023-05-19T02:52:19.418Z,12.35
2023-05-19T02:53:19.431Z,12.29
2023-05-19T02:54:19.437Z,12.33
2023-05-19T02:55:19.502Z,12.23
2023-05-19T02:56:19.547Z,12.36
2023-05-19T02:57:19.547Z,12.37
2023-05-19T02:58:19.562Z,12.43
2023-05-19T02:59:19.621Z,12.42
2023-05-19T03:00:19.627Z,12.49
2023-05-19T03:01:19.702Z,12.53
2023-05-19T03:02:19.740Z,12.55
2023-05-19T03:03:19.937Z,12.57
2023-05-19T03:04:19.864Z,12.64
2023-05-19T03:05:19.870Z,12.59
2023-05-19T03:06:19.929Z,12.62
2023-05-19T03:07:19.989Z,12.63
2023-05-19T03:08:20.052Z,12.59
2023-05-19T03:09:20.055Z,12.48
2023-05-19T03:10:20.099Z,12.53
2023-05-19T03:11:20.155Z,12.50
2023-05-19T03:12:20.222Z,12.55
2023-05-19T03:13:20.233Z,12.49
2023-05-19T03:14:20.293Z,12.35
2023-05-19T03:15:20.297Z,12.43
2023-05-19T03:16:20.374Z,12.49
2023-05-19T03:17:20.448Z,12.55
2023-05-19T03:18:20.483Z,12.57
2023-05-19T03:19:20.516Z,12.55
2023-05-19T03:20:20.509Z,12.59
2023-05-19T03:21:20.544Z,12.62
2023-05-19T03:22:20.566Z,12.60
2023-05-19T03:23:43.075Z,12.50
2023-05-19T03:24:43.112Z,12.46
2023-05-19T03:25:43.097Z,12.48
2023-05-19T03:26:43.115Z,12.50
2023-05-19T03:27:43.052Z,12.43
2023-05-19T03:28:43.459Z,12.48
2023-05-19T03:29:43.029Z,12.46
2023-05-19T03:30:43.072Z,12.43
2023-05-19T03:31:43.043Z,12.46
2023-05-19T03:32:43.108Z,12.50
2023-05-19T03:33:43.083Z,12.56
2023-05-19T03:34:43.020Z,12.57
2023-05-19T03:35:43.005Z,12.57
2023-05-19T03:36:43.033Z,12.63
2023-05-19T03:37:42.984Z,12.62
2023-05-19T03:38:43.022Z,12.63
2023-05-19T03:39:42.944Z,12.62
2023-05-19T03:40:42.982Z,12.63
2023-05-19T03:41:42.966Z,12.64
2023-05-19T03:42:43.010Z,12.60
2023-05-19T03:43:42.957Z,12.64
2023-05-19T03:44:42.921Z,12.56
2023-05-19T03:45:42.965Z,12.48
2023-05-19T03:46:42.941Z,12.48
2023-05-19T03:47:42.926Z,11.92
2023-05-19T03:48:42.892Z,12.03
2023-05-19T03:49:42.975Z,11.69
2023-05-19T03:50:42.905Z,11.46
2023-05-19T03:51:42.925Z,11.71
2023-05-19T03:52:42.869Z,11.79
2023-05-19T03:53:42.876Z,11.78
2023-05-19T03:54:42.890Z,11.90
2023-05-19T03:55:42.851Z,11.95
2023-05-19T03:56:42.856Z,11.58
2023-05-19T03:57:42.845Z,11.69
2023-05-19T03:58:42.821Z,11.74
2023-05-19T03:59:42.831Z,11.86
2023-05-19T04:00:42.857Z,11.92
2023-05-19T04:01:42.935Z,12.01
2023-05-19T04:02:42.920Z,12.05
2023-05-19T04:03:42.830Z,11.90
2023-05-19T04:04:42.833Z,11.98
2023-05-19T04:05:42.824Z,11.62
2023-05-19T04:06:42.792Z,11.68
2023-05-19T04:07:44.852Z,11.44
2023-05-19T04:08:42.780Z,11.72
2023-05-19T04:09:42.764Z,11.84
2023-05-19T04:10:42.760Z,11.82
2023-05-19T04:11:42.826Z,11.99
2023-05-19T04:12:42.742Z,12.12
2023-05-19T04:13:43.415Z,12.06
2023-05-19T04:14:42.718Z,12.26
2023-05-19T04:15:42.757Z,12.32
2023-05-19T04:16:42.735Z,12.31
2023-05-19T04:17:42.705Z,12.43
2023-05-19T04:18:42.688Z,12.49
2023-05-19T04:19:42.712Z,12.59
2023-05-19T04:20:42.724Z,12.60
2023-05-19T04:21:42.724Z,12.67
2023-05-19T04:22:42.780Z,12.76
2023-05-19T04:23:42.771Z,12.78
2023-05-19T04:24:42.792Z,12.86
2023-05-19T04:25:42.802Z,12.93
2023-05-19T04:26:42.859Z,12.97
2023-05-19T04:27:42.902Z,13.03
2023-05-19T04:28:42.931Z,13.06
2023-05-19T04:29:42.926Z,13.04
2023-05-19T04:30:42.966Z,13.10
2023-05-19T04:31:43.025Z,13.13
2023-05-19T04:32:42.946Z,13.13
2023-05-19T04:33:42.957Z,12.89
2023-05-19T04:34:43.010Z,12.93
2023-05-19T04:35:43.013Z,12.72
2023-05-19T04:36:43.073Z,12.67
2023-05-19T04:37:43.078Z,12.56
2023-05-19T04:38:43.093Z,12.18
2023-05-19T04:39:43.161Z,12.45
2023-05-19T04:40:43.105Z,12.36
2023-05-19T04:41:43.128Z,12.39
2023-05-19T04:42:43.165Z,12.21
2023-05-19T04:43:43.168Z,12.08
2023-05-19T04:44:43.193Z,12.12
2023-05-19T04:45:43.229Z,12.16
2023-05-19T04:46:43.298Z,11.95
2023-05-19T04:47:43.266Z,12.13
2023-05-19T04:48:43.266Z,12.01
2023-05-19T04:49:43.288Z,12.01
2023-05-19T04:50:43.273Z,11.68
2023-05-19T04:51:43.355Z,11.54
2023-05-19T04:52:43.399Z,11.31
2023-05-19T04:53:43.425Z,11.31
2023-05-19T04:54:43.446Z,11.58
2023-05-19T04:55:43.577Z,11.74
2023-05-19T04:56:43.543Z,11.34
2023-05-19T04:57:43.512Z,11.64
2023-05-19T04:58:43.588Z,11.62
2023-05-19T04:59:43.641Z,11.85
2023-05-19T05:00:43.646Z,11.86
2023-05-19T05:01:43.731Z,12.05
2023-05-19T05:02:43.796Z,12.05
2023-05-19T05:03:43.810Z,12.01
2023-05-19T05:04:43.713Z,12.25
2023-05-19T05:05:43.745Z,12.18
2023-05-19T05:06:43.763Z,12.08
2023-05-19T05:07:43.765Z,11.99
2023-05-19T05:08:44.779Z,12.25
2023-05-19T05:09:43.823Z,11.72
2023-05-19T05:10:43.861Z,11.32
2023-05-19T05:11:43.917Z,11.84
2023-05-19T05:12:43.923Z,11.90
2023-05-19T05:13:43.940Z,11.92
2023-05-19T05:14:43.951Z,12.16
2023-05-19T05:15:43.986Z,12.28
2023-05-19T05:16:44.217Z,12.22
2023-05-19T05:17:44.088Z,12.35
2023-05-19T05:18:45.025Z,12.45
2023-05-19T05:19:44.091Z,12.55
2023-05-19T05:20:44.101Z,12.69
2023-05-19T05:21:44.099Z,12.67
2023-05-19T05:22:44.082Z,12.66
2023-05-19T05:23:44.156Z,12.64
2023-05-19T05:24:44.130Z,12.75
2023-05-19T05:25:44.232Z,12.69
2023-05-19T05:26:44.215Z,12.99
2023-05-19T05:27:44.255Z,12.39
2023-05-19T05:28:44.237Z,12.39
2023-05-19T05:29:44.281Z,12.59
2023-05-19T05:30:44.300Z,12.60
2023-05-19T05:31:44.376Z,12.72
2023-05-19T05:32:44.485Z,12.70
2023-05-19T05:33:44.416Z,12.83
2023-05-19T05:34:44.381Z,12.89
2023-05-19T05:35:44.461Z,13.17
2023-05-19T05:36:44.510Z,13.21
2023-05-19T05:37:44.530Z,12.90
2023-05-19T05:38:44.550Z,12.64
2023-05-19T05:39:44.541Z,12.73
2023-05-19T05:40:44.595Z,12.93
2023-05-19T05:41:44.651Z,12.79
2023-05-19T05:42:44.676Z,12.87
2023-05-19T05:43:44.746Z,13.23
2023-05-19T05:44:44.754Z,13.31
2023-05-19T05:45:44.811Z,12.64
2023-05-19T05:46:44.805Z,13.11
2023-05-19T05:47:44.862Z,13.20
2023-05-19T05:48:44.880Z,13.51
2023-05-19T05:49:44.884Z,13.44
2023-05-19T05:50:44.904Z,13.02
2023-05-19T05:51:57.918Z,13.21
2023-05-19T05:52:45.927Z,13.46
2023-05-19T05:53:44.924Z,13.07
2023-05-19T05:54:44.939Z,12.55
2023-05-19T05:55:44.900Z,11.68
2023-05-19T05:56:44.921Z,12.35
2023-05-19T05:57:44.904Z,12.42
2023-05-19T05:58:44.874Z,12.50
2023-05-19T05:59:44.882Z,12.32
2023-05-19T06:00:45.287Z,12.57
2023-05-19T06:01:44.909Z,12.42
2023-05-19T06:02:44.972Z,12.99
2023-05-19T06:03:44.941Z,13.29
2023-05-19T06:04:44.837Z,13.21
2023-05-19T06:05:44.894Z,13.43
2023-05-19T06:06:44.846Z,13.37
2023-05-19T06:07:44.834Z,12.97
2023-05-19T06:08:44.888Z,13.37
2023-05-19T06:09:44.932Z,13.68
2023-05-19T06:10:47.200Z,14.00
2023-05-19T06:11:45.165Z,14.00
2023-05-19T06:12:45.143Z,14.18
2023-05-19T06:13:45.363Z,14.00
2023-05-19T06:14:45.206Z,14.36
2023-05-19T06:15:45.365Z,14.58
2023-05-19T06:16:45.329Z,15.15
2023-05-19T06:17:45.374Z,15.45
2023-05-19T06:18:45.405Z,15.89
2023-05-19T06:19:45.420Z,16.03
2023-05-19T06:20:45.431Z,15.46
2023-05-19T06:21:45.450Z,15.79
2023-05-19T06:22:45.457Z,16.24
2023-05-19T06:23:45.525Z,15.73
2023-05-19T06:24:45.611Z,16.27
2023-05-19T06:25:45.593Z,16.50
2023-05-19T06:26:45.624Z,16.70
2023-05-19T06:27:45.666Z,17.03
2023-05-19T06:28:45.663Z,16.30
2023-05-19T06:29:45.733Z,16.64
2023-05-19T06:30:45.743Z,16.00
2023-05-19T06:31:45.849Z,16.07
2023-05-19T06:32:45.868Z,15.50
2023-05-19T06:33:45.864Z,15.15
2023-05-19T06:34:45.846Z,15.22
2023-05-19T06:35:45.846Z,15.25
2023-05-19T06:36:45.909Z,15.06
2023-05-19T06:37:45.889Z,14.89
2023-05-19T06:38:45.951Z,15.50
2023-05-19T06:39:45.985Z,15.40
2023-05-19T06:40:45.968Z,15.82
2023-05-19T06:41:45.987Z,16.23
2023-05-19T06:42:46.013Z,16.43
2023-05-19T06:43:46.048Z,16.94
2023-05-19T06:44:46.112Z,17.14
2023-05-19T06:45:46.135Z,17.32
2023-05-19T06:46:46.292Z,17.55
2023-05-19T06:47:46.416Z,16.71
2023-05-19T06:48:46.296Z,17.10
2023-05-19T06:49:46.287Z,17.22
2023-05-19T06:50:46.303Z,17.82
2023-05-19T06:51:46.370Z,18.47
2023-05-19T06:52:46.408Z,18.90
2023-05-19T06:53:46.518Z,19.37
2023-05-19T06:54:46.438Z,19.89
2023-05-19T06:55:58.130Z,19.41
2023-05-19T06:56:47.508Z,18.60
2023-05-19T06:57:46.537Z,19.00
2023-05-19T06:58:46.524Z,19.04
2023-05-19T06:59:46.476Z,18.13
2023-05-19T07:00:46.457Z,18.89
2023-05-19T07:01:46.481Z,19.46
2023-05-19T07:02:46.577Z,19.80
2023-05-19T07:03:46.534Z,18.83
2023-05-19T07:04:46.448Z,19.37
2023-05-19T07:05:46.444Z,19.73
2023-05-19T07:06:46.465Z,18.49
2023-05-19T07:07:46.434Z,18.32
2023-05-19T07:08:46.400Z,18.42
2023-05-19T07:10:16.527Z,18.16
2023-05-19T07:11:16.489Z,17.95
2023-05-19T07:12:16.560Z,18.35
2023-05-19T07:13:16.538Z,17.52
2023-05-19T07:14:16.520Z,17.21
2023-05-19T07:15:16.532Z,16.67
2023-05-19T07:16:16.580Z,15.74
2023-05-19T07:17:16.510Z,16.46
2023-05-19T07:18:16.536Z,15.70
2023-05-19T07:19:16.572Z,15.42
2023-05-19T07:20:16.505Z,15.52
2023-05-19T07:21:16.486Z,15.86
2023-05-19T07:22:16.479Z,16.14
2023-05-19T07:23:17.450Z,16.48
2023-05-19T07:24:16.473Z,16.58
2023-05-19T07:25:16.475Z,16.43
2023-05-19T07:26:16.469Z,16.57
2023-05-19T07:27:16.494Z,15.94
2023-05-19T07:28:16.462Z,16.41
2023-05-19T07:29:16.457Z,16.43
2023-05-19T07:30:16.405Z,15.70
2023-05-19T07:31:16.440Z,16.63
2023-05-19T07:32:16.547Z,16.87
2023-05-19T07:33:16.467Z,17.28
2023-05-19T07:34:16.383Z,16.98
2023-05-19T07:35:16.422Z,17.76
2023-05-19T07:36:16.410Z,18.22
2023-05-19T07:37:16.406Z,18.42
2023-05-19T07:38:16.345Z,18.16
2023-05-19T07:39:16.391Z,17.89
2023-05-19T07:40:16.337Z,17.81
2023-05-19T07:41:16.329Z,16.98
2023-05-19T07:42:16.340Z,17.37
2023-05-19T07:43:16.333Z,16.64
2023-05-19T07:44:16.298Z,16.80
2023-05-19T07:45:16.315Z,16.94
2023-05-19T07:46:16.393Z,17.41
2023-05-19T07:47:16.324Z,17.35
2023-05-19T07:48:16.304Z,17.49
2023-05-19T07:49:16.286Z,17.55
2023-05-19T07:50:16.335Z,17.75
2023-05-19T07:51:16.309Z,17.45
2023-05-19T07:52:16.268Z,17.64
2023-05-19T07:53:16.273Z,17.99
2023-05-19T07:54:16.211Z,17.95
2023-05-19T07:55:16.244Z,18.12
2023-05-19T07:56:16.218Z,17.92
2023-05-19T07:57:16.225Z,17.88
2023-05-19T07:58:16.197Z,17.31
2023-05-19T07:59:16.208Z,18.03
2023-05-19T08:00:16.229Z,18.39
2023-05-19T08:01:16.211Z,18.59
2023-05-19T08:02:16.257Z,17.95
2023-05-19T08:03:16.447Z,17.84
2023-05-19T08:04:16.329Z,17.96
2023-05-19T08:05:16.228Z,17.86
2023-05-19T08:06:16.265Z,18.40
2023-05-19T08:07:16.326Z,18.70
2023-05-19T08:08:16.318Z,18.92
2023-05-19T08:09:16.387Z,18.80
2023-05-19T08:10:16.433Z,19.10
2023-05-19T08:11:16.436Z,19.18
2023-05-19T08:12:16.493Z,18.84
2023-05-19T08:13:16.437Z,18.63
2023-05-19T08:14:16.472Z,18.96
2023-05-19T08:15:16.558Z,18.93
2023-05-19T08:16:16.604Z,19.20
2023-05-19T08:17:16.613Z,19.42
2023-05-19T08:18:16.564Z,19.47
2023-05-19T08:19:16.727Z,19.75
2023-05-19T08:20:16.697Z,19.44
2023-05-19T08:21:16.772Z,19.67
2023-05-19T08:22:16.769Z,19.85
2023-05-19T08:23:16.775Z,19.30
2023-05-19T08:24:16.839Z,18.59
2023-05-19T08:25:16.837Z,18.84
2023-05-19T08:26:16.897Z,19.57
2023-05-19T08:27:16.910Z,19.80
2023-05-19T08:28:16.924Z,19.42
2023-05-19T08:29:16.922Z,19.41
2023-05-19T08:30:16.922Z,19.56
2023-05-19T08:31:17.002Z,19.78
2023-05-19T08:32:17.025Z,19.99
2023-05-19T08:33:17.054Z,19.57
2023-05-19T08:34:17.093Z,20.48
2023-05-19T08:35:17.177Z,21.03
2023-05-19T08:36:17.178Z,21.54
2023-05-19T08:37:17.183Z,21.86
2023-05-19T08:38:17.248Z,22.29
2023-05-19T08:39:17.254Z,22.53
2023-05-19T08:40:17.267Z,22.39
2023-05-19T08:41:17.296Z,22.09
2023-05-19T08:42:17.350Z,21.69
2023-05-19T08:43:17.416Z,21.72
2023-05-19T08:44:19.002Z,21.89
2023-05-19T08:45:17.450Z,22.68
2023-05-19T08:46:17.510Z,21.93
2023-05-19T08:47:20.336Z,22.71
2023-05-19T08:48:17.544Z,23.29
2023-05-19T08:49:17.513Z,23.78
2023-05-19T08:50:17.524Z,23.94
2023-05-19T08:51:17.493Z,23.96
2023-05-19T08:52:17.491Z,23.95
2023-05-19T08:53:31.962Z,24.15
2023-05-19T08:54:18.456Z,24.46
2023-05-19T08:55:17.482Z,24.60
2023-05-19T08:56:17.435Z,24.52
2023-05-19T08:57:17.452Z,24.49
2023-05-19T08:58:17.453Z,24.22
2023-05-19T08:59:17.444Z,24.13
2023-05-19T09:00:17.437Z,24.22
2023-05-19T09:01:17.479Z,24.33
2023-05-19T09:02:17.447Z,24.40
2023-05-19T09:03:23.271Z,24.45
2023-05-19T09:04:18.464Z,24.65
2023-05-19T09:05:17.371Z,24.52
2023-05-19T09:06:17.419Z,24.65
2023-05-19T09:07:17.389Z,24.85
2023-05-19T09:08:17.416Z,24.99
2023-05-19T09:09:17.365Z,24.60
2023-05-19T09:10:17.327Z,24.86
2023-05-19T09:11:17.349Z,25.17
2023-05-19T09:12:17.347Z,25.12
2023-05-19T09:13:17.354Z,24.23
2023-05-19T09:14:17.363Z,24.43
2023-05-19T09:15:17.342Z,24.76
2023-05-19T09:16:17.294Z,25.13
2023-05-19T09:17:17.344Z,25.29
2023-05-19T09:18:17.309Z,25.53
2023-05-19T09:19:17.375Z,25.70
2023-05-19T09:20:17.366Z,25.48
2023-05-19T09:21:17.419Z,24.76
2023-05-19T09:22:17.493Z,25.74
2023-05-19T09:23:17.479Z,26.17
2023-05-19T09:24:17.558Z,26.11
2023-05-19T09:25:17.537Z,25.63
2023-05-19T09:26:17.569Z,25.84
2023-05-19T09:27:17.612Z,25.22
2023-05-19T09:28:17.652Z,23.28
2023-05-19T09:29:17.639Z,23.05
2023-05-19T09:30:17.708Z,22.90
2023-05-19T09:31:18.662Z,21.93
2023-05-19T09:32:17.748Z,20.82
2023-05-19T09:33:18.662Z,20.75
2023-05-19T09:34:17.767Z,21.83
2023-05-19T09:35:17.799Z,22.39
2023-05-19T09:36:17.816Z,23.14
2023-05-19T09:37:17.930Z,23.57
2023-05-19T09:38:17.902Z,23.54
2023-05-19T09:39:17.925Z,23.66
2023-05-19T09:40:18.027Z,24.46
2023-05-19T09:41:18.015Z,24.96
2023-05-19T09:42:18.028Z,25.53
2023-05-19T09:43:18.073Z,25.40
2023-05-19T09:44:18.067Z,25.83
2023-05-19T09:45:18.112Z,26.21
2023-05-19T09:46:18.209Z,25.17
2023-05-19T09:47:18.228Z,24.12
2023-05-19T09:48:18.284Z,23.32
2023-05-19T09:49:18.279Z,21.80
2023-05-19T09:50:18.411Z,22.75
2023-05-19T09:51:19.252Z,21.79
2023-05-19T09:52:18.351Z,22.29
2023-05-19T09:53:18.365Z,22.29
2023-05-19T09:54:18.398Z,20.14
2023-05-19T09:55:18.376Z,21.53
2023-05-19T09:56:18.416Z,22.43
2023-05-19T09:57:18.441Z,23.13
2023-05-19T09:58:18.498Z,23.48
2023-05-19T09:59:18.497Z,22.94
2023-05-19T10:00:18.634Z,23.44
2023-05-19T10:01:18.617Z,24.35
2023-05-19T10:02:18.612Z,23.85
2023-05-19T10:03:18.597Z,23.27
2023-05-19T10:04:18.615Z,23.04
2023-05-19T10:05:19.766Z,23.82
2023-05-19T10:06:18.696Z,21.13
2023-05-19T10:07:18.749Z,22.34
2023-05-19T10:08:18.751Z,22.42
2023-05-19T10:09:18.823Z,23.19
2023-05-19T10:10:18.823Z,23.04
2023-05-19T10:11:18.867Z,23.19
2023-05-19T10:12:18.881Z,23.47
2023-05-19T10:13:18.951Z,23.94
2023-05-19T10:14:18.961Z,23.58
2023-05-19T10:15:20.552Z,24.55
2023-05-19T10:16:19.038Z,22.61
2023-05-19T10:17:19.023Z,23.72
2023-05-19T10:18:18.987Z,23.78
2023-05-19T10:19:19.020Z,23.52
2023-05-19T10:20:19.066Z,24.01
2023-05-19T10:21:18.954Z,23.78
2023-05-19T10:22:19.022Z,24.46
2023-05-19T10:23:18.944Z,24.02
2023-05-19T10:24:18.967Z,24.11
2023-05-19T10:25:18.929Z,24.86
2023-05-19T10:26:18.960Z,24.75
2023-05-19T10:27:18.956Z,24.89
2023-05-19T10:28:18.950Z,24.91
2023-05-19T10:29:18.891Z,24.83
2023-05-19T10:30:18.908Z,25.36
2023-05-19T10:31:18.995Z,23.59
2023-05-19T10:32:18.932Z,22.33
2023-05-19T10:33:18.912Z,22.44
2023-05-19T10:34:18.854Z,22.51
2023-05-19T10:35:18.868Z,21.13
2023-05-19T10:36:18.891Z,21.10
2023-05-19T10:37:18.864Z,22.25
2023-05-19T10:38:18.866Z,22.90
2023-05-19T10:39:18.891Z,21.72
2023-05-19T10:40:18.822Z,21.80
2023-05-19T10:41:18.840Z,21.45
2023-05-19T10:42:18.850Z,22.07
2023-05-19T10:43:18.782Z,23.02
2023-05-19T10:44:18.807Z,21.52
2023-05-19T10:45:18.796Z,22.57
2023-05-19T10:46:18.827Z,22.60
2023-05-19T10:47:18.845Z,21.53
2023-05-19T10:48:19.216Z,21.52
2023-05-19T10:49:18.772Z,21.52
2023-05-19T10:50:18.738Z,21.64
2023-05-19T10:51:18.759Z,21.97
2023-05-19T10:52:18.770Z,22.70
2023-05-19T10:53:18.745Z,23.41
2023-05-19T10:54:18.761Z,23.51
2023-05-19T10:55:18.732Z,22.88
2023-05-19T10:56:18.742Z,23.61
2023-05-19T10:57:18.749Z,24.23
2023-05-19T10:58:18.694Z,23.79
2023-05-19T10:59:18.696Z,24.02
2023-05-19T11:00:18.655Z,22.70
2023-05-19T11:01:18.753Z,21.12
2023-05-19T11:02:18.690Z,22.20
2023-05-19T11:03:18.747Z,22.10
2023-05-19T11:04:18.710Z,23.04
2023-05-19T11:05:18.664Z,23.74
2023-05-19T11:06:18.669Z,23.68
2023-05-19T11:07:18.667Z,22.07
2023-05-19T11:08:18.642Z,20.27
2023-05-19T11:09:19.514Z,19.98
2023-05-19T11:10:18.650Z,20.14
2023-05-19T11:11:18.585Z,21.26
2023-05-19T11:12:18.690Z,22.07
2023-05-19T11:13:18.665Z,22.58
2023-05-19T11:14:18.751Z,22.97
2023-05-19T11:15:18.671Z,23.07
2023-05-19T11:16:18.836Z,21.59
2023-05-19T11:17:18.785Z,21.76
2023-05-19T11:18:18.796Z,21.16
2023-05-19T11:19:18.857Z,22.21
2023-05-19T11:20:18.852Z,23.02
2023-05-19T11:21:18.910Z,23.17
2023-05-19T11:22:18.844Z,23.84
2023-05-19T11:23:18.947Z,23.85
2023-05-19T11:24:18.911Z,23.84
2023-05-19T11:25:18.908Z,23.88
2023-05-19T11:26:18.980Z,23.66
2023-05-19T11:27:19.028Z,23.72
2023-05-19T11:28:19.105Z,23.84
2023-05-19T11:29:19.108Z,23.44
2023-05-19T11:30:19.122Z,23.86
2023-05-19T11:31:19.162Z,24.15
2023-05-19T11:32:19.234Z,24.20
2023-05-19T11:33:19.268Z,23.99
2023-05-19T11:34:19.209Z,24.53
2023-05-19T11:35:19.227Z,24.42
2023-05-19T11:36:19.250Z,24.26
2023-05-19T11:37:19.324Z,25.17
2023-05-19T11:38:19.333Z,25.20
2023-05-19T11:39:19.337Z,23.94
2023-05-19T11:40:19.336Z,23.00
2023-05-19T11:41:20.766Z,23.65
2023-05-19T11:42:19.455Z,23.24
2023-05-19T11:43:19.521Z,23.32
2023-05-19T11:44:19.529Z,24.18
2023-05-19T11:45:19.506Z,24.49
2023-05-19T11:46:19.592Z,23.84
2023-05-19T11:47:19.630Z,23.41
2023-05-19T11:48:19.733Z,23.58
2023-05-19T11:49:19.677Z,23.98
2023-05-19T11:50:19.850Z,24.22
2023-05-19T11:51:19.694Z,24.20
2023-05-19T11:52:19.737Z,23.48
2023-05-19T11:53:19.941Z,23.64
2023-05-19T11:54:19.696Z,24.06
2023-05-19T11:55:19.740Z,23.96
2023-05-19T11:56:19.670Z,24.11
2023-05-19T11:57:19.664Z,24.42
2023-05-19T11:58:19.663Z,24.62
2023-05-19T11:59:19.665Z,25.26
2023-05-19T12:00:19.647Z,24.63
2023-05-19T12:01:19.625Z,25.10
2023-05-19T12:02:19.703Z,24.02
2023-05-19T12:03:19.889Z,24.19
2023-05-19T12:04:19.771Z,23.94
2023-05-19T12:05:19.840Z,22.21
2023-05-19T12:06:19.848Z,21.53
2023-05-19T12:07:19.851Z,20.78
2023-05-19T12:08:19.917Z,20.76
2023-05-19T12:09:19.935Z,21.25
2023-05-19T12:10:19.961Z,21.16
2023-05-19T12:11:20.112Z,21.48
2023-05-19T12:12:20.012Z,21.77
2023-05-19T12:13:19.984Z,21.48
2023-05-19T12:14:20.069Z,21.74
2023-05-19T12:15:20.086Z,21.79
2023-05-19T12:16:20.166Z,22.00
2023-05-19T12:17:20.122Z,21.69
2023-05-19T12:18:20.187Z,21.16
2023-05-19T12:19:20.289Z,20.85
2023-05-19T12:20:20.231Z,21.05
2023-05-19T12:21:20.230Z,21.02
2023-05-19T12:22:20.270Z,20.89
2023-05-19T12:23:20.275Z,21.30
2023-05-19T12:24:20.351Z,21.74
2023-05-19T12:25:20.302Z,21.92
2023-05-19T12:26:20.330Z,21.70
2023-05-19T12:27:20.391Z,21.66
2023-05-19T12:28:20.365Z,21.85
2023-05-19T12:29:20.394Z,22.07
2023-05-19T12:30:20.400Z,22.43
2023-05-19T12:31:20.463Z,22.17
2023-05-19T12:32:20.449Z,22.54
2023-05-19T12:33:20.501Z,21.66
2023-05-19T12:34:20.545Z,22.21
2023-05-19T12:35:20.602Z,22.40
2023-05-19T12:36:20.617Z,22.10
2023-05-19T12:37:20.656Z,21.57
2023-05-19T12:38:20.653Z,21.54
2023-05-19T12:39:21.478Z,21.06
2023-05-19T12:40:20.690Z,21.12
2023-05-19T12:41:20.717Z,21.48
2023-05-19T12:42:20.787Z,21.42
2023-05-19T12:43:20.802Z,21.53
2023-05-19T12:44:20.827Z,21.03
2023-05-19T12:45:20.830Z,20.91
2023-05-19T12:46:20.879Z,21.03
2023-05-19T12:47:20.915Z,21.29
2023-05-19T12:48:20.907Z,21.76
2023-05-19T12:49:20.890Z,21.89
2023-05-19T12:50:20.928Z,21.89
2023-05-19T12:51:20.941Z,21.50
2023-05-19T12:52:21.022Z,21.86
2023-05-19T12:53:21.063Z,21.82
2023-05-19T12:54:21.072Z,21.82